PWSweather.com
Personal Weather Stations
Station Observations
KCARIDGE3
Ridgecrest, CA 93555

Ridgecrest, CA 93555

Lat: 35.62083817, Lon: -117.6733017

Elevation: 2315

Station Type:

High Low Average
Temperature 102.6°F39.2°C 78.6°F25.9°C 89.6°F32.0°C
Dew Point 47.3°F8.5°C 18.5°F-7.5°C 39.9°F4.4°C
Winds 21.9 mph 35.2 kmh 0.9 mph 1.4 kmh 11.0 mph SSW17.7 kmh SSW
Wind Gusts 30.0 mph48.3 kmh -- 11.0 mph17.7 kmh
Humidity 29% 5% 19%
Pressure -338605.1 mb -338605.1 mb -
Precipitation 0.00 in0.0 mm - -
Hour Temp Dew Point Humidity Winds Wind Gusts Pressure Precip Precip Rate Daily Precip Total
12:02 AM 84.9°F29.4°C 40.6°F4.8°C 21% 8.1 mph S13.0 kmh S 10.1 mph16.3 kmh -338605.1 mb - 0.00 in0.0 mm 0.00 in0.0 mm
12:07 AM 84.7°F29.3°C 40.5°F4.7°C 21% 6.9 mph SW11.1 kmh SW 8.1 mph13.0 kmh -338605.1 mb - 0.00 in0.0 mm 0.00 in0.0 mm
12:12 AM 84.7°F29.3°C 40.5°F4.7°C 21% 6.9 mph S11.1 kmh S 6.9 mph11.1 kmh -338605.1 mb - 0.00 in0.0 mm 0.00 in0.0 mm
12:17 AM 84.7°F29.3°C 40.5°F4.7°C 21% 6.9 mph SSW11.1 kmh SSW 6.9 mph11.1 kmh -338605.1 mb - 0.00 in0.0 mm 0.00 in0.0 mm
12:22 AM 84.7°F29.3°C 40.5°F4.7°C 21% 6.9 mph SSW11.1 kmh SSW 10.1 mph16.3 kmh -338605.1 mb - 0.00 in0.0 mm 0.00 in0.0 mm
12:27 AM 84.6°F29.2°C 40.3°F4.6°C 21% 6.9 mph SW11.1 kmh SW 8.1 mph13.0 kmh -338605.1 mb - 0.00 in0.0 mm 0.00 in0.0 mm
12:32 AM 84.6°F29.2°C 40.3°F4.6°C 21% 8.1 mph SW13.0 kmh SW 8.1 mph13.0 kmh -338605.1 mb - 0.00 in0.0 mm 0.00 in0.0 mm
12:37 AM 84.6°F29.2°C 40.3°F4.6°C 21% 8.1 mph SW13.0 kmh SW 4.0 mph6.4 kmh -338605.1 mb - 0.00 in0.0 mm 0.00 in0.0 mm
12:42 AM 84.6°F29.2°C 40.3°F4.6°C 21% 8.1 mph SSW13.0 kmh SSW 6.0 mph9.7 kmh -338605.1 mb - 0.00 in0.0 mm 0.00 in0.0 mm
12:47 AM 84.7°F29.3°C 40.5°F4.7°C 21% 8.1 mph SSW13.0 kmh SSW 6.9 mph11.1 kmh -338605.1 mb - 0.00 in0.0 mm 0.00 in0.0 mm
12:52 AM 84.7°F29.3°C 40.5°F4.7°C 21% 8.9 mph SW14.3 kmh SW 8.9 mph14.3 kmh -338605.1 mb - 0.00 in0.0 mm 0.00 in0.0 mm
12:57 AM 84.9°F29.4°C 40.6°F4.8°C 21% 10.1 mph SW16.3 kmh SW 6.0 mph9.7 kmh -338605.1 mb - 0.00 in0.0 mm 0.00 in0.0 mm
01:02 AM 85.3°F29.6°C 41.0°F5.0°C 21% 10.1 mph SW16.3 kmh SW 8.9 mph14.3 kmh -338605.1 mb - 0.00 in0.0 mm 0.00 in0.0 mm
01:07 AM 85.3°F29.6°C 41.0°F5.0°C 21% 8.9 mph S14.3 kmh S 13.0 mph20.9 kmh -338605.1 mb - 0.00 in0.0 mm 0.00 in0.0 mm
01:12 AM 85.3°F29.6°C 41.0°F5.0°C 21% 8.9 mph S14.3 kmh S 10.1 mph16.3 kmh -338605.1 mb - 0.00 in0.0 mm 0.00 in0.0 mm
01:17 AM 85.3°F29.6°C 41.0°F5.0°C 21% 8.9 mph SW14.3 kmh SW 10.1 mph16.3 kmh -338605.1 mb - 0.00 in0.0 mm 0.00 in0.0 mm
01:22 AM 85.1°F29.5°C 41.9°F5.5°C 22% 8.9 mph SW14.3 kmh SW 8.9 mph14.3 kmh -338605.1 mb - 0.00 in0.0 mm 0.00 in0.0 mm
01:27 AM 84.7°F29.3°C 41.7°F5.4°C 22% 8.1 mph SSW13.0 kmh SSW 8.9 mph14.3 kmh -338605.1 mb - 0.00 in0.0 mm 0.00 in0.0 mm
01:32 AM 84.7°F29.3°C 41.7°F5.4°C 22% 6.9 mph S11.1 kmh S 6.0 mph9.7 kmh -338605.1 mb - 0.00 in0.0 mm 0.00 in0.0 mm
01:37 AM 84.6°F29.2°C 41.5°F5.3°C 22% 6.0 mph S9.7 kmh S 6.9 mph11.1 kmh -338605.1 mb - 0.00 in0.0 mm 0.00 in0.0 mm
01:42 AM 84.4°F29.1°C 41.4°F5.2°C 22% 4.9 mph S7.9 kmh S 4.9 mph7.9 kmh -338605.1 mb - 0.00 in0.0 mm 0.00 in0.0 mm
01:47 AM 83.7°F28.7°C 40.8°F4.9°C 22% 6.0 mph SSE9.7 kmh SSE 4.9 mph7.9 kmh -338605.1 mb - 0.00 in0.0 mm 0.00 in0.0 mm
01:52 AM 83.1°F28.4°C 40.3°F4.6°C 22% 6.0 mph S9.7 kmh S 4.9 mph7.9 kmh -338605.1 mb - 0.00 in0.0 mm 0.00 in0.0 mm
01:57 AM 82.9°F28.3°C 41.4°F5.2°C 23% 6.0 mph SSE9.7 kmh SSE 6.0 mph9.7 kmh -338605.1 mb - 0.00 in0.0 mm 0.00 in0.0 mm
02:02 AM 82.8°F28.2°C 41.2°F5.1°C 23% 4.9 mph S7.9 kmh S 6.0 mph9.7 kmh -338605.1 mb - 0.00 in0.0 mm 0.00 in0.0 mm
02:07 AM 82.8°F28.2°C 41.2°F5.1°C 23% 6.9 mph S11.1 kmh S 8.9 mph14.3 kmh -338605.1 mb - 0.00 in0.0 mm 0.00 in0.0 mm
02:12 AM 82.8°F28.2°C 41.2°F5.1°C 23% 8.1 mph S13.0 kmh S 8.9 mph14.3 kmh -338605.1 mb - 0.00 in0.0 mm 0.00 in0.0 mm
02:17 AM 82.8°F28.2°C 41.2°F5.1°C 23% 8.1 mph S13.0 kmh S 6.0 mph9.7 kmh -338605.1 mb - 0.00 in0.0 mm 0.00 in0.0 mm
02:22 AM 82.8°F28.2°C 41.2°F5.1°C 23% 8.1 mph SSE13.0 kmh SSE 8.9 mph14.3 kmh -338605.1 mb - 0.00 in0.0 mm 0.00 in0.0 mm
02:27 AM 82.6°F28.1°C 41.0°F5.0°C 23% 8.1 mph S13.0 kmh S 8.1 mph13.0 kmh -338605.1 mb - 0.00 in0.0 mm 0.00 in0.0 mm
02:32 AM 82.8°F28.2°C 41.2°F5.1°C 23% 8.1 mph S13.0 kmh S 8.1 mph13.0 kmh -338605.1 mb - 0.00 in0.0 mm 0.00 in0.0 mm
02:37 AM 82.6°F28.1°C 41.0°F5.0°C 23% 8.1 mph S13.0 kmh S 8.9 mph14.3 kmh -338605.1 mb - 0.00 in0.0 mm 0.00 in0.0 mm
02:42 AM 82.2°F27.9°C 41.9°F5.5°C 24% 8.1 mph S13.0 kmh S 6.9 mph11.1 kmh -338605.1 mb - 0.00 in0.0 mm 0.00 in0.0 mm
02:47 AM 82.0°F27.8°C 41.7°F5.4°C 24% 8.1 mph SSW13.0 kmh SSW 11.0 mph17.7 kmh -338605.1 mb - 0.00 in0.0 mm 0.00 in0.0 mm
02:52 AM 81.9°F27.7°C 41.5°F5.3°C 24% 8.1 mph SSW13.0 kmh SSW 4.9 mph7.9 kmh -338605.1 mb - 0.00 in0.0 mm 0.00 in0.0 mm
02:57 AM 81.9°F27.7°C 41.5°F5.3°C 24% 6.9 mph SSW11.1 kmh SSW 11.0 mph17.7 kmh -338605.1 mb - 0.00 in0.0 mm 0.00 in0.0 mm
03:02 AM 81.9°F27.7°C 41.5°F5.3°C 24% 6.9 mph S11.1 kmh S 4.9 mph7.9 kmh -338605.1 mb - 0.00 in0.0 mm 0.00 in0.0 mm
03:07 AM 81.9°F27.7°C 41.5°F5.3°C 24% 6.9 mph S11.1 kmh S 6.9 mph11.1 kmh -338605.1 mb - 0.00 in0.0 mm 0.00 in0.0 mm
03:12 AM 81.9°F27.7°C 41.5°F5.3°C 24% 6.9 mph S11.1 kmh S 4.9 mph7.9 kmh -338605.1 mb - 0.00 in0.0 mm 0.00 in0.0 mm
03:17 AM 81.9°F27.7°C 41.5°F5.3°C 24% 6.0 mph SSE9.7 kmh SSE 2.0 mph3.2 kmh -338605.1 mb - 0.00 in0.0 mm 0.00 in0.0 mm
03:22 AM 81.7°F27.6°C 41.4°F5.2°C 24% 2.9 mph SSE4.7 kmh SSE 0.9 mph1.4 kmh -338605.1 mb - 0.00 in0.0 mm 0.00 in0.0 mm
03:27 AM 81.5°F27.5°C 41.2°F5.1°C 24% 0.9 mph SSE1.4 kmh SSE 2.9 mph4.7 kmh -338605.1 mb - 0.00 in0.0 mm 0.00 in0.0 mm
03:32 AM 81.5°F27.5°C 41.2°F5.1°C 24% 2.0 mph SSE3.2 kmh SSE 0.9 mph1.4 kmh -338605.1 mb - 0.00 in0.0 mm 0.00 in0.0 mm
03:37 AM 81.5°F27.5°C 41.2°F5.1°C 24% 0.9 mph S1.4 kmh S 6.9 mph11.1 kmh -338605.1 mb - 0.00 in0.0 mm 0.00 in0.0 mm
03:42 AM 81.3°F27.4°C 41.0°F5.0°C 24% 2.9 mph S4.7 kmh S 4.9 mph7.9 kmh -338605.1 mb - 0.00 in0.0 mm 0.00 in0.0 mm
03:47 AM 81.1°F27.3°C 39.7°F4.3°C 23% 6.0 mph SW9.7 kmh SW 8.9 mph14.3 kmh -338605.1 mb - 0.00 in0.0 mm 0.00 in0.0 mm
03:52 AM 81.3°F27.4°C 39.9°F4.4°C 23% 6.9 mph S11.1 kmh S 6.0 mph9.7 kmh -338605.1 mb - 0.00 in0.0 mm 0.00 in0.0 mm
03:57 AM 81.3°F27.4°C 39.9°F4.4°C 23% 6.9 mph S11.1 kmh S 8.1 mph13.0 kmh -338605.1 mb - 0.00 in0.0 mm 0.00 in0.0 mm
04:02 AM 81.5°F27.5°C 40.1°F4.5°C 23% 8.1 mph WSW13.0 kmh WSW 8.9 mph14.3 kmh -338605.1 mb - 0.00 in0.0 mm 0.00 in0.0 mm
04:07 AM 81.7°F27.6°C 40.3°F4.6°C 23% 8.9 mph SW14.3 kmh SW 12.1 mph19.5 kmh -338605.1 mb - 0.00 in0.0 mm 0.00 in0.0 mm
04:12 AM 81.9°F27.7°C 40.5°F4.7°C 23% 8.1 mph SW13.0 kmh SW 4.9 mph7.9 kmh -338605.1 mb - 0.00 in0.0 mm 0.00 in0.0 mm
04:17 AM 81.9°F27.7°C 40.5°F4.7°C 23% 6.9 mph SW11.1 kmh SW 4.0 mph6.4 kmh -338605.1 mb - 0.00 in0.0 mm 0.00 in0.0 mm
04:22 AM 81.9°F27.7°C 40.5°F4.7°C 23% 6.0 mph SSW9.7 kmh SSW 4.0 mph6.4 kmh -338605.1 mb - 0.00 in0.0 mm 0.00 in0.0 mm
04:27 AM 81.9°F27.7°C 40.5°F4.7°C 23% 6.0 mph S9.7 kmh S 8.9 mph14.3 kmh -338605.1 mb - 0.00 in0.0 mm 0.00 in0.0 mm
04:32 AM 81.5°F27.5°C 41.2°F5.1°C 24% 6.0 mph S9.7 kmh S 4.0 mph6.4 kmh -338605.1 mb - 0.00 in0.0 mm 0.00 in0.0 mm
04:37 AM 81.1°F27.3°C 41.0°F5.0°C 24% 6.9 mph S11.1 kmh S 8.1 mph13.0 kmh -338605.1 mb - 0.00 in0.0 mm 0.00 in0.0 mm
04:42 AM 81.1°F27.3°C 41.9°F5.5°C 25% 8.1 mph SSW13.0 kmh SSW 6.0 mph9.7 kmh -338605.1 mb - 0.00 in0.0 mm 0.00 in0.0 mm
04:47 AM 81.1°F27.3°C 41.9°F5.5°C 25% 6.9 mph S11.1 kmh S 6.0 mph9.7 kmh -338605.1 mb - 0.00 in0.0 mm 0.00 in0.0 mm
04:52 AM 81.0°F27.2°C 41.9°F5.5°C 25% 6.0 mph S9.7 kmh S 4.0 mph6.4 kmh -338605.1 mb - 0.00 in0.0 mm 0.00 in0.0 mm
04:57 AM 81.0°F27.2°C 41.9°F5.5°C 25% 6.0 mph SSW9.7 kmh SSW 4.9 mph7.9 kmh -338605.1 mb - 0.00 in0.0 mm 0.00 in0.0 mm
05:02 AM 80.8°F27.1°C 41.7°F5.4°C 25% 4.9 mph SW7.9 kmh SW 8.1 mph13.0 kmh -338605.1 mb - 0.00 in0.0 mm 0.00 in0.0 mm
05:07 AM 80.8°F27.1°C 41.7°F5.4°C 25% 6.0 mph SSW9.7 kmh SSW 6.9 mph11.1 kmh -338605.1 mb - 0.00 in0.0 mm 0.00 in0.0 mm
05:12 AM 80.8°F27.1°C 41.7°F5.4°C 25% 8.1 mph SW13.0 kmh SW 12.1 mph19.5 kmh -338605.1 mb - 0.00 in0.0 mm 0.00 in0.0 mm
05:17 AM 81.0°F27.2°C 41.9°F5.5°C 25% 8.1 mph SW13.0 kmh SW 10.1 mph16.3 kmh -338605.1 mb - 0.00 in0.0 mm 0.00 in0.0 mm
05:22 AM 80.8°F27.1°C 42.6°F5.9°C 26% 8.1 mph SSW13.0 kmh SSW 6.9 mph11.1 kmh -338605.1 mb - 0.00 in0.0 mm 0.00 in0.0 mm
05:27 AM 80.6°F27.0°C 42.6°F5.9°C 26% 6.9 mph SW11.1 kmh SW 4.9 mph7.9 kmh -338605.1 mb - 0.00 in0.0 mm 0.00 in0.0 mm
05:32 AM 80.4°F26.9°C 42.4°F5.8°C 26% 4.9 mph SW7.9 kmh SW 2.0 mph3.2 kmh -338605.1 mb - 0.00 in0.0 mm 0.00 in0.0 mm
05:37 AM 80.2°F26.8°C 42.3°F5.7°C 26% 2.9 mph S4.7 kmh S -- -338605.1 mb - 0.00 in0.0 mm 0.00 in0.0 mm
05:42 AM 80.2°F26.8°C 42.3°F5.7°C 26% 2.0 mph SW3.2 kmh SW 0.9 mph1.4 kmh -338605.1 mb - 0.00 in0.0 mm 0.00 in0.0 mm
05:47 AM 80.2°F26.8°C 42.3°F5.7°C 26% 2.0 mph WSW3.2 kmh WSW 4.0 mph6.4 kmh -338605.1 mb - 0.00 in0.0 mm 0.00 in0.0 mm
05:52 AM 80.4°F26.9°C 42.4°F5.8°C 26% 4.0 mph WSW6.4 kmh WSW 6.0 mph9.7 kmh -338605.1 mb - 0.00 in0.0 mm 0.00 in0.0 mm
05:57 AM 80.2°F26.8°C 42.3°F5.7°C 26% 4.9 mph S7.9 kmh S 6.9 mph11.1 kmh -338605.1 mb - 0.00 in0.0 mm 0.00 in0.0 mm
06:02 AM 80.1°F26.7°C 42.1°F5.6°C 26% 4.9 mph SSE7.9 kmh SSE 2.0 mph3.2 kmh -338605.1 mb - 0.00 in0.0 mm 0.00 in0.0 mm
06:07 AM 79.9°F26.6°C 41.9°F5.5°C 26% 4.0 mph SSE6.4 kmh SSE 4.0 mph6.4 kmh -338605.1 mb - 0.00 in0.0 mm 0.00 in0.0 mm
06:12 AM 79.7°F26.5°C 41.7°F5.4°C 26% 2.9 mph SSE4.7 kmh SSE 0.9 mph1.4 kmh -338605.1 mb - 0.00 in0.0 mm 0.00 in0.0 mm
06:17 AM 79.5°F26.4°C 42.6°F5.9°C 27% 2.0 mph SSE3.2 kmh SSE 0.9 mph1.4 kmh -338605.1 mb - 0.00 in0.0 mm 0.00 in0.0 mm
06:22 AM 79.3°F26.3°C 42.4°F5.8°C 27% 0.9 mph SSE1.4 kmh SSE 0.9 mph1.4 kmh -338605.1 mb - 0.00 in0.0 mm 0.00 in0.0 mm
06:27 AM 79.0°F26.1°C 42.1°F5.6°C 27% 2.0 mph S3.2 kmh S 2.0 mph3.2 kmh -338605.1 mb - 0.00 in0.0 mm 0.00 in0.0 mm
06:32 AM 79.0°F26.1°C 42.1°F5.6°C 27% 2.9 mph S4.7 kmh S 4.9 mph7.9 kmh -338605.1 mb - 0.00 in0.0 mm 0.00 in0.0 mm
06:37 AM 78.6°F25.9°C 42.8°F6.0°C 28% 2.9 mph SSE4.7 kmh SSE 2.0 mph3.2 kmh -338605.1 mb - 0.00 in0.0 mm 0.00 in0.0 mm
06:42 AM 78.6°F25.9°C 41.9°F5.5°C 27% 2.9 mph S4.7 kmh S 0.9 mph1.4 kmh -338605.1 mb - 0.00 in0.0 mm 0.00 in0.0 mm
06:47 AM 79.3°F26.3°C 41.5°F5.3°C 26% 4.0 mph S6.4 kmh S 6.9 mph11.1 kmh -338605.1 mb - 0.00 in0.0 mm 0.00 in0.0 mm
06:52 AM 80.2°F26.8°C 41.2°F5.1°C 25% 4.9 mph SSW7.9 kmh SSW 4.0 mph6.4 kmh -338605.1 mb - 0.00 in0.0 mm 0.00 in0.0 mm
06:57 AM 80.8°F27.1°C 41.7°F5.4°C 25% 4.0 mph S6.4 kmh S 2.9 mph4.7 kmh -338605.1 mb - 0.00 in0.0 mm 0.00 in0.0 mm
07:02 AM 81.3°F27.4°C 42.1°F5.6°C 25% 4.0 mph SSW6.4 kmh SSW 4.0 mph6.4 kmh -338605.1 mb - 0.00 in0.0 mm 0.00 in0.0 mm
07:07 AM 81.9°F27.7°C 41.5°F5.3°C 24% 4.9 mph SSW7.9 kmh SSW 6.9 mph11.1 kmh -338605.1 mb - 0.00 in0.0 mm 0.00 in0.0 mm
07:12 AM 81.9°F27.7°C 42.6°F5.9°C 25% 6.0 mph S9.7 kmh S 8.1 mph13.0 kmh -338605.1 mb - 0.00 in0.0 mm 0.00 in0.0 mm
07:17 AM 81.7°F27.6°C 42.4°F5.8°C 25% 6.0 mph S9.7 kmh S 4.0 mph6.4 kmh -338605.1 mb - 0.00 in0.0 mm 0.00 in0.0 mm
07:22 AM 81.9°F27.7°C 42.6°F5.9°C 25% 6.9 mph S11.1 kmh S 6.0 mph9.7 kmh -338605.1 mb - 0.00 in0.0 mm 0.00 in0.0 mm
07:27 AM 82.2°F27.9°C 43.0°F6.1°C 25% 6.0 mph S9.7 kmh S 4.0 mph6.4 kmh -338605.1 mb - 0.00 in0.0 mm 0.00 in0.0 mm
07:32 AM 83.1°F28.4°C 42.6°F5.9°C 24% 4.9 mph S7.9 kmh S 4.9 mph7.9 kmh -338605.1 mb - 0.00 in0.0 mm 0.00 in0.0 mm
07:37 AM 83.8°F28.8°C 42.1°F5.6°C 23% 6.9 mph S11.1 kmh S 8.9 mph14.3 kmh -338605.1 mb - 0.00 in0.0 mm 0.00 in0.0 mm
07:42 AM 83.7°F28.7°C 41.9°F5.5°C 23% 6.9 mph SSW11.1 kmh SSW 6.9 mph11.1 kmh -338605.1 mb - 0.00 in0.0 mm 0.00 in0.0 mm
07:47 AM 83.7°F28.7°C 41.9°F5.5°C 23% 6.9 mph S11.1 kmh S 6.9 mph11.1 kmh -338605.1 mb - 0.00 in0.0 mm 0.00 in0.0 mm
07:52 AM 84.4°F29.1°C 42.6°F5.9°C 23% 6.9 mph S11.1 kmh S 6.0 mph9.7 kmh -338605.1 mb - 0.00 in0.0 mm 0.00 in0.0 mm
07:57 AM 84.9°F29.4°C 43.0°F6.1°C 23% 6.0 mph SSW9.7 kmh SSW 4.9 mph7.9 kmh -338605.1 mb - 0.00 in0.0 mm 0.00 in0.0 mm
08:02 AM 85.5°F29.7°C 42.3°F5.7°C 22% 6.9 mph S11.1 kmh S 11.0 mph17.7 kmh -338605.1 mb - 0.00 in0.0 mm 0.00 in0.0 mm
08:07 AM 85.8°F29.9°C 42.6°F5.9°C 22% 8.9 mph S14.3 kmh S 10.1 mph16.3 kmh -338605.1 mb - 0.00 in0.0 mm 0.00 in0.0 mm
08:12 AM 85.6°F29.8°C 42.4°F5.8°C 22% 10.1 mph S16.3 kmh S 6.9 mph11.1 kmh -338605.1 mb - 0.00 in0.0 mm 0.00 in0.0 mm
08:17 AM 86.5°F30.3°C 41.9°F5.5°C 21% 8.9 mph SSW14.3 kmh SSW 6.0 mph9.7 kmh -338605.1 mb - 0.00 in0.0 mm 0.00 in0.0 mm
08:22 AM 86.9°F30.5°C 42.3°F5.7°C 21% 8.1 mph S13.0 kmh S 6.9 mph11.1 kmh -338605.1 mb - 0.00 in0.0 mm 0.00 in0.0 mm
08:27 AM 86.9°F30.5°C 42.3°F5.7°C 21% 6.9 mph S11.1 kmh S 12.1 mph19.5 kmh -338605.1 mb - 0.00 in0.0 mm 0.00 in0.0 mm
08:32 AM 87.1°F30.6°C 42.4°F5.8°C 21% 6.9 mph SSW11.1 kmh SSW 4.9 mph7.9 kmh -338605.1 mb - 0.00 in0.0 mm 0.00 in0.0 mm
08:37 AM 87.4°F30.8°C 42.8°F6.0°C 21% 6.9 mph S11.1 kmh S 15.0 mph24.1 kmh -338605.1 mb - 0.00 in0.0 mm 0.00 in0.0 mm
08:42 AM 88.0°F31.1°C 43.2°F6.2°C 21% 8.9 mph S14.3 kmh S 8.9 mph14.3 kmh -338605.1 mb - 0.00 in0.0 mm 0.00 in0.0 mm
08:47 AM 88.2°F31.2°C 43.3°F6.3°C 21% 8.9 mph SSW14.3 kmh SSW 4.9 mph7.9 kmh -338605.1 mb - 0.00 in0.0 mm 0.00 in0.0 mm
08:52 AM 88.3°F31.3°C 42.3°F5.7°C 20% 10.1 mph SW16.3 kmh SW 6.9 mph11.1 kmh -338605.1 mb - 0.00 in0.0 mm 0.00 in0.0 mm
08:57 AM 88.7°F31.5°C 42.4°F5.8°C 20% 10.1 mph SW16.3 kmh SW 6.0 mph9.7 kmh -338605.1 mb - 0.00 in0.0 mm 0.00 in0.0 mm
09:02 AM 89.1°F31.7°C 42.8°F6.0°C 20% 10.1 mph SSW16.3 kmh SSW 6.9 mph11.1 kmh -338605.1 mb - 0.00 in0.0 mm 0.00 in0.0 mm
09:07 AM 89.4°F31.9°C 43.0°F6.1°C 20% 11.0 mph S17.7 kmh S 13.0 mph20.9 kmh -338605.1 mb - 0.00 in0.0 mm 0.00 in0.0 mm
09:12 AM 89.8°F32.1°C 42.1°F5.6°C 19% 11.0 mph S17.7 kmh S 11.0 mph17.7 kmh -338605.1 mb - 0.00 in0.0 mm 0.00 in0.0 mm
09:17 AM 90.0°F32.2°C 42.3°F5.7°C 19% 12.1 mph SSW19.5 kmh SSW 6.9 mph11.1 kmh -338605.1 mb - 0.00 in0.0 mm 0.00 in0.0 mm
09:22 AM 90.1°F32.3°C 42.3°F5.7°C 19% 11.0 mph SSW17.7 kmh SSW 12.1 mph19.5 kmh -338605.1 mb - 0.00 in0.0 mm 0.00 in0.0 mm
09:27 AM 90.7°F32.6°C 42.8°F6.0°C 19% 10.1 mph SSW16.3 kmh SSW 10.1 mph16.3 kmh -338605.1 mb - 0.00 in0.0 mm 0.00 in0.0 mm
09:32 AM 91.0°F32.8°C 43.0°F6.1°C 19% 10.1 mph S16.3 kmh S 14.1 mph22.7 kmh -338605.1 mb - 0.00 in0.0 mm 0.00 in0.0 mm
09:37 AM 91.2°F32.9°C 43.2°F6.2°C 19% 10.1 mph SSW16.3 kmh SSW 6.9 mph11.1 kmh -338605.1 mb - 0.00 in0.0 mm 0.00 in0.0 mm
09:42 AM 91.4°F33.0°C 43.3°F6.3°C 19% 11.0 mph S17.7 kmh S 12.1 mph19.5 kmh -338605.1 mb - 0.00 in0.0 mm 0.00 in0.0 mm
09:47 AM 91.8°F33.2°C 43.7°F6.5°C 19% 11.0 mph S17.7 kmh S 14.1 mph22.7 kmh -338605.1 mb - 0.00 in0.0 mm 0.00 in0.0 mm
09:52 AM 91.9°F33.3°C 43.7°F6.5°C 19% 13.0 mph S20.9 kmh S 17.9 mph28.8 kmh -338605.1 mb - 0.00 in0.0 mm 0.00 in0.0 mm
09:57 AM 92.1°F33.4°C 43.9°F6.6°C 19% 13.0 mph S20.9 kmh S 12.1 mph19.5 kmh -338605.1 mb - 0.00 in0.0 mm 0.00 in0.0 mm
10:02 AM 92.5°F33.6°C 42.8°F6.0°C 18% 12.1 mph SSW19.5 kmh SSW 11.0 mph17.7 kmh -338605.1 mb - 0.00 in0.0 mm 0.00 in0.0 mm
10:07 AM 92.8°F33.8°C 43.2°F6.2°C 18% 11.0 mph SW17.7 kmh SW 13.0 mph20.9 kmh -338605.1 mb - 0.00 in0.0 mm 0.00 in0.0 mm
10:12 AM 93.4°F34.1°C 43.5°F6.4°C 18% 12.1 mph SSW19.5 kmh SSW 10.1 mph16.3 kmh -338605.1 mb - 0.00 in0.0 mm 0.00 in0.0 mm
10:17 AM 93.6°F34.2°C 43.7°F6.5°C 18% 13.0 mph SSW20.9 kmh SSW 17.0 mph27.4 kmh -338605.1 mb - 0.00 in0.0 mm 0.00 in0.0 mm
10:22 AM 93.9°F34.4°C 44.1°F6.7°C 18% 13.0 mph S20.9 kmh S 10.1 mph16.3 kmh -338605.1 mb - 0.00 in0.0 mm 0.00 in0.0 mm
10:27 AM 94.3°F34.6°C 44.2°F6.8°C 18% 13.0 mph SSW20.9 kmh SSW 6.0 mph9.7 kmh -338605.1 mb - 0.00 in0.0 mm 0.00 in0.0 mm
10:32 AM 94.5°F34.7°C 43.0°F6.1°C 17% 13.0 mph S20.9 kmh S 19.9 mph32.0 kmh -338605.1 mb - 0.00 in0.0 mm 0.00 in0.0 mm
10:37 AM 94.5°F34.7°C 44.4°F6.9°C 18% 13.0 mph S20.9 kmh S 19.0 mph30.6 kmh -338605.1 mb - 0.00 in0.0 mm 0.00 in0.0 mm
10:42 AM 94.8°F34.9°C 43.2°F6.2°C 17% 13.0 mph S20.9 kmh S 6.0 mph9.7 kmh -338605.1 mb - 0.00 in0.0 mm 0.00 in0.0 mm
10:47 AM 95.2°F35.1°C 43.5°F6.4°C 17% 13.0 mph S20.9 kmh S 8.9 mph14.3 kmh -338605.1 mb - 0.00 in0.0 mm 0.00 in0.0 mm
10:52 AM 95.5°F35.3°C 43.7°F6.5°C 17% 11.0 mph SSW17.7 kmh SSW 17.0 mph27.4 kmh -338605.1 mb - 0.00 in0.0 mm 0.00 in0.0 mm
10:57 AM 95.7°F35.4°C 43.9°F6.6°C 17% 13.0 mph S20.9 kmh S 16.1 mph25.9 kmh -338605.1 mb - 0.00 in0.0 mm 0.00 in0.0 mm
11:02 AM 95.7°F35.4°C 43.9°F6.6°C 17% 14.1 mph SSW22.7 kmh SSW 12.1 mph19.5 kmh -338605.1 mb - 0.00 in0.0 mm 0.00 in0.0 mm
11:07 AM 95.9°F35.5°C 42.4°F5.8°C 16% 14.1 mph S22.7 kmh S 19.9 mph32.0 kmh -338605.1 mb - 0.00 in0.0 mm 0.00 in0.0 mm
11:12 AM 95.9°F35.5°C 42.4°F5.8°C 16% 15.0 mph S24.1 kmh S 17.0 mph27.4 kmh -338605.1 mb - 0.00 in0.0 mm 0.00 in0.0 mm
11:17 AM 95.9°F35.5°C 42.4°F5.8°C 16% 17.0 mph SSE27.4 kmh SSE 11.0 mph17.7 kmh -338605.1 mb - 0.00 in0.0 mm 0.00 in0.0 mm
11:22 AM 95.9°F35.5°C 42.4°F5.8°C 16% 17.0 mph S27.4 kmh S 8.9 mph14.3 kmh -338605.1 mb - 0.00 in0.0 mm 0.00 in0.0 mm
11:27 AM 96.3°F35.7°C 42.8°F6.0°C 16% 15.0 mph SSW24.1 kmh SSW 14.1 mph22.7 kmh -338605.1 mb - 0.00 in0.0 mm 0.00 in0.0 mm
11:32 AM 96.3°F35.7°C 42.8°F6.0°C 16% 16.1 mph S25.9 kmh S 23.0 mph37.0 kmh -338605.1 mb - 0.00 in0.0 mm 0.00 in0.0 mm
11:37 AM 96.1°F35.6°C 42.6°F5.9°C 16% 17.9 mph S28.8 kmh S 25.1 mph40.4 kmh -338605.1 mb - 0.00 in0.0 mm 0.00 in0.0 mm
11:42 AM 96.1°F35.6°C 42.6°F5.9°C 16% 19.0 mph S30.6 kmh S 19.9 mph32.0 kmh -338605.1 mb - 0.00 in0.0 mm 0.00 in0.0 mm
11:47 AM 96.4°F35.8°C 41.2°F5.1°C 15% 17.9 mph S28.8 kmh S 19.0 mph30.6 kmh -338605.1 mb - 0.00 in0.0 mm 0.00 in0.0 mm
11:52 AM 96.6°F35.9°C 41.4°F5.2°C 15% 17.0 mph SSW27.4 kmh SSW 19.0 mph30.6 kmh -338605.1 mb - 0.00 in0.0 mm 0.00 in0.0 mm
11:57 AM 97.0°F36.1°C 41.7°F5.4°C 15% 16.1 mph S25.9 kmh S 25.9 mph41.7 kmh -338605.1 mb - 0.00 in0.0 mm 0.00 in0.0 mm
12:02 PM 96.6°F35.9°C 41.4°F5.2°C 15% 17.9 mph S28.8 kmh S 19.0 mph30.6 kmh -338605.1 mb - 0.00 in0.0 mm 0.00 in0.0 mm
12:07 PM 97.0°F36.1°C 39.9°F4.4°C 14% 19.0 mph S30.6 kmh S 19.0 mph30.6 kmh -338605.1 mb - 0.00 in0.0 mm 0.00 in0.0 mm
12:12 PM 97.7°F36.5°C 40.5°F4.7°C 14% 19.0 mph S30.6 kmh S 16.1 mph25.9 kmh -338605.1 mb - 0.00 in0.0 mm 0.00 in0.0 mm
12:17 PM 97.9°F36.6°C 40.6°F4.8°C 14% 17.9 mph SSE28.8 kmh SSE 12.1 mph19.5 kmh -338605.1 mb - 0.00 in0.0 mm 0.00 in0.0 mm
12:22 PM 98.2°F36.8°C 39.0°F3.9°C 13% 17.0 mph S27.4 kmh S 21.9 mph35.2 kmh -338605.1 mb - 0.00 in0.0 mm 0.00 in0.0 mm
12:27 PM 98.2°F36.8°C 39.0°F3.9°C 13% 16.1 mph SW25.9 kmh SW 14.1 mph22.7 kmh -338605.1 mb - 0.00 in0.0 mm 0.00 in0.0 mm
12:32 PM 98.2°F36.8°C 40.8°F4.9°C 14% 17.9 mph S28.8 kmh S 16.1 mph25.9 kmh -338605.1 mb - 0.00 in0.0 mm 0.00 in0.0 mm
12:37 PM 98.6°F37.0°C 39.2°F4.0°C 13% 17.0 mph S27.4 kmh S 21.0 mph33.8 kmh -338605.1 mb - 0.00 in0.0 mm 0.00 in0.0 mm
12:42 PM 99.0°F37.2°C 39.6°F4.2°C 13% 17.0 mph S27.4 kmh S 17.9 mph28.8 kmh -338605.1 mb - 0.00 in0.0 mm 0.00 in0.0 mm
12:47 PM 99.1°F37.3°C 41.5°F5.3°C 14% 17.0 mph SSW27.4 kmh SSW 17.0 mph27.4 kmh -338605.1 mb - 0.00 in0.0 mm 0.00 in0.0 mm
12:52 PM 99.3°F37.4°C 39.7°F4.3°C 13% 15.0 mph S24.1 kmh S 25.9 mph41.7 kmh -338605.1 mb - 0.00 in0.0 mm 0.00 in0.0 mm
12:57 PM 99.7°F37.6°C 35.8°F2.1°C 11% 15.0 mph S24.1 kmh S 21.0 mph33.8 kmh -338605.1 mb - 0.00 in0.0 mm 0.00 in0.0 mm
01:02 PM 99.7°F37.6°C 35.8°F2.1°C 11% 15.0 mph SSW24.1 kmh SSW 8.1 mph13.0 kmh -338605.1 mb - 0.00 in0.0 mm 0.00 in0.0 mm
01:07 PM 99.9°F37.7°C 38.1°F3.4°C 12% 15.0 mph S24.1 kmh S 21.0 mph33.8 kmh -338605.1 mb - 0.00 in0.0 mm 0.00 in0.0 mm
01:12 PM 99.7°F37.6°C 38.1°F3.4°C 12% 16.1 mph SW25.9 kmh SW 11.0 mph17.7 kmh -338605.1 mb - 0.00 in0.0 mm 0.00 in0.0 mm
01:17 PM 99.9°F37.7°C 38.1°F3.4°C 12% 15.0 mph SW24.1 kmh SW 21.9 mph35.2 kmh -338605.1 mb - 0.00 in0.0 mm 0.00 in0.0 mm
01:22 PM 99.9°F37.7°C 38.1°F3.4°C 12% 13.0 mph S20.9 kmh S 17.9 mph28.8 kmh -338605.1 mb - 0.00 in0.0 mm 0.00 in0.0 mm
01:27 PM 100.4°F38.0°C 34.0°F1.1°C 10% 15.0 mph SW24.1 kmh SW 15.0 mph24.1 kmh -338605.1 mb - 0.00 in0.0 mm 0.00 in0.0 mm
01:32 PM 100.4°F38.0°C 34.0°F1.1°C 10% 15.0 mph SW24.1 kmh SW 16.1 mph25.9 kmh -338605.1 mb - 0.00 in0.0 mm 0.00 in0.0 mm
01:37 PM 100.8°F38.2°C 34.3°F1.3°C 10% 13.0 mph SSW20.9 kmh SSW 4.9 mph7.9 kmh -338605.1 mb - 0.00 in0.0 mm 0.00 in0.0 mm
01:42 PM 100.9°F38.3°C 36.9°F2.7°C 11% 13.0 mph SW20.9 kmh SW 15.0 mph24.1 kmh -338605.1 mb - 0.00 in0.0 mm 0.00 in0.0 mm
01:47 PM 100.9°F38.3°C 34.3°F1.3°C 10% 12.1 mph SW19.5 kmh SW 6.9 mph11.1 kmh -338605.1 mb - 0.00 in0.0 mm 0.00 in0.0 mm
01:52 PM 101.3°F38.5°C 32.0°F0.0°C 9% 10.1 mph SW16.3 kmh SW 15.0 mph24.1 kmh -338605.1 mb - 0.00 in0.0 mm 0.00 in0.0 mm
01:57 PM 101.5°F38.6°C 32.2°F0.1°C 9% 11.0 mph SSW17.7 kmh SSW 8.1 mph13.0 kmh -338605.1 mb - 0.00 in0.0 mm 0.00 in0.0 mm
02:02 PM 101.7°F38.7°C 34.9°F1.6°C 10% 11.0 mph S17.7 kmh S 19.0 mph30.6 kmh -338605.1 mb - 0.00 in0.0 mm 0.00 in0.0 mm
02:07 PM 101.8°F38.8°C 32.4°F0.2°C 9% 10.1 mph SW16.3 kmh SW 8.9 mph14.3 kmh -338605.1 mb - 0.00 in0.0 mm 0.00 in0.0 mm
02:12 PM 101.8°F38.8°C 32.4°F0.2°C 9% 12.1 mph S19.5 kmh S 14.1 mph22.7 kmh -338605.1 mb - 0.00 in0.0 mm 0.00 in0.0 mm
02:17 PM 101.8°F38.8°C 32.4°F0.2°C 9% 13.0 mph S20.9 kmh S 27.1 mph43.6 kmh -338605.1 mb - 0.00 in0.0 mm 0.00 in0.0 mm
02:22 PM 102.0°F38.9°C 29.7°F-1.3°C 8% 15.0 mph SW24.1 kmh SW 13.0 mph20.9 kmh -338605.1 mb - 0.00 in0.0 mm 0.00 in0.0 mm
02:27 PM 102.4°F39.1°C 26.6°F-3.0°C 7% 15.0 mph S24.1 kmh S 23.0 mph37.0 kmh -338605.1 mb - 0.00 in0.0 mm 0.00 in0.0 mm
02:32 PM 102.2°F39.0°C 18.5°F-7.5°C 5% 16.1 mph S25.9 kmh S 13.0 mph20.9 kmh -338605.1 mb - 0.00 in0.0 mm 0.00 in0.0 mm
02:37 PM 102.6°F39.2°C 18.9°F-7.3°C 5% 17.9 mph SW28.8 kmh SW 30.0 mph48.3 kmh -338605.1 mb - 0.00 in0.0 mm 0.00 in0.0 mm
02:42 PM 102.6°F39.2°C 18.9°F-7.3°C 5% 17.0 mph SSW27.4 kmh SSW 19.0 mph30.6 kmh -338605.1 mb - 0.00 in0.0 mm 0.00 in0.0 mm
02:47 PM 102.6°F39.2°C 18.9°F-7.3°C 5% 17.9 mph S28.8 kmh S 27.1 mph43.6 kmh -338605.1 mb - 0.00 in0.0 mm 0.00 in0.0 mm
02:52 PM 102.2°F39.0°C 22.8°F-5.1°C 6% 19.0 mph SW30.6 kmh SW 17.0 mph27.4 kmh -338605.1 mb - 0.00 in0.0 mm 0.00 in0.0 mm
02:57 PM 102.4°F39.1°C 18.7°F-7.4°C 5% 19.9 mph S32.0 kmh S 21.9 mph35.2 kmh -338605.1 mb - 0.00 in0.0 mm 0.00 in0.0 mm
03:02 PM 102.4°F39.1°C 23.0°F-5.0°C 6% 19.0 mph SSW30.6 kmh SSW 23.0 mph37.0 kmh -338605.1 mb - 0.00 in0.0 mm 0.00 in0.0 mm
03:07 PM 102.2°F39.0°C 26.6°F-3.0°C 7% 19.0 mph S30.6 kmh S 23.0 mph37.0 kmh -338605.1 mb - 0.00 in0.0 mm 0.00 in0.0 mm
03:12 PM 102.0°F38.9°C 26.4°F-3.1°C 7% 19.9 mph SSW32.0 kmh SSW 19.0 mph30.6 kmh -338605.1 mb - 0.00 in0.0 mm 0.00 in0.0 mm
03:17 PM 101.8°F38.8°C 22.6°F-5.2°C 6% 21.0 mph S33.8 kmh S 17.9 mph28.8 kmh -338605.1 mb - 0.00 in0.0 mm 0.00 in0.0 mm
03:22 PM 102.0°F38.9°C 26.4°F-3.1°C 7% 19.0 mph S30.6 kmh S 17.9 mph28.8 kmh -338605.1 mb - 0.00 in0.0 mm 0.00 in0.0 mm
03:27 PM 102.0°F38.9°C 26.4°F-3.1°C 7% 17.9 mph SSW28.8 kmh SSW 8.9 mph14.3 kmh -338605.1 mb - 0.00 in0.0 mm 0.00 in0.0 mm
03:32 PM 102.0°F38.9°C 26.4°F-3.1°C 7% 17.9 mph SSW28.8 kmh SSW 21.0 mph33.8 kmh -338605.1 mb - 0.00 in0.0 mm 0.00 in0.0 mm
03:37 PM 102.0°F38.9°C 26.4°F-3.1°C 7% 19.0 mph SW30.6 kmh SW 29.1 mph46.8 kmh -338605.1 mb - 0.00 in0.0 mm 0.00 in0.0 mm
03:42 PM 101.8°F38.8°C 26.2°F-3.2°C 7% 17.9 mph S28.8 kmh S 30.0 mph48.3 kmh -338605.1 mb - 0.00 in0.0 mm 0.00 in0.0 mm
03:47 PM 101.7°F38.7°C 26.2°F-3.2°C 7% 19.9 mph SW32.0 kmh SW 16.1 mph25.9 kmh -338605.1 mb - 0.00 in0.0 mm 0.00 in0.0 mm
03:52 PM 101.5°F38.6°C 29.3°F-1.5°C 8% 21.0 mph SSW33.8 kmh SSW 13.0 mph20.9 kmh -338605.1 mb - 0.00 in0.0 mm 0.00 in0.0 mm
03:57 PM 101.3°F38.5°C 29.1°F-1.6°C 8% 19.0 mph SSW30.6 kmh SSW 15.0 mph24.1 kmh -338605.1 mb - 0.00 in0.0 mm 0.00 in0.0 mm
04:02 PM 101.1°F38.4°C 28.9°F-1.7°C 8% 17.9 mph SSW28.8 kmh SSW 21.9 mph35.2 kmh -338605.1 mb - 0.00 in0.0 mm 0.00 in0.0 mm
04:07 PM 101.1°F38.4°C 28.9°F-1.7°C 8% 17.9 mph SW28.8 kmh SW 10.1 mph16.3 kmh -338605.1 mb - 0.00 in0.0 mm 0.00 in0.0 mm
04:12 PM 101.1°F38.4°C 28.9°F-1.7°C 8% 19.0 mph SSW30.6 kmh SSW 25.1 mph40.4 kmh -338605.1 mb - 0.00 in0.0 mm 0.00 in0.0 mm
04:17 PM 100.8°F38.2°C 31.6°F-0.2°C 9% 21.9 mph SSW35.2 kmh SSW 21.9 mph35.2 kmh -338605.1 mb - 0.00 in0.0 mm 0.00 in0.0 mm
04:22 PM 100.6°F38.1°C 31.5°F-0.3°C 9% 21.0 mph S33.8 kmh S 17.0 mph27.4 kmh -338605.1 mb - 0.00 in0.0 mm 0.00 in0.0 mm
04:27 PM 100.6°F38.1°C 31.5°F-0.3°C 9% 19.0 mph SSW30.6 kmh SSW 17.0 mph27.4 kmh -338605.1 mb - 0.00 in0.0 mm 0.00 in0.0 mm
04:32 PM 100.6°F38.1°C 31.5°F-0.3°C 9% 19.0 mph SSW30.6 kmh SSW 21.9 mph35.2 kmh -338605.1 mb - 0.00 in0.0 mm 0.00 in0.0 mm
04:37 PM 100.6°F38.1°C 31.5°F-0.3°C 9% 17.0 mph SSW27.4 kmh SSW 17.0 mph27.4 kmh -338605.1 mb - 0.00 in0.0 mm 0.00 in0.0 mm
04:42 PM 100.6°F38.1°C 31.5°F-0.3°C 9% 15.0 mph WSW24.1 kmh WSW 12.1 mph19.5 kmh -338605.1 mb - 0.00 in0.0 mm 0.00 in0.0 mm
04:47 PM 100.0°F37.8°C 28.2°F-2.1°C 8% 15.0 mph W24.1 kmh W 13.0 mph20.9 kmh -338605.1 mb - 0.00 in0.0 mm 0.00 in0.0 mm
04:52 PM 99.1°F37.3°C 30.4°F-0.9°C 9% 16.1 mph SW25.9 kmh SW 12.1 mph19.5 kmh -338605.1 mb - 0.00 in0.0 mm 0.00 in0.0 mm
04:57 PM 99.1°F37.3°C 30.4°F-0.9°C 9% 16.1 mph SW25.9 kmh SW 10.1 mph16.3 kmh -338605.1 mb - 0.00 in0.0 mm 0.00 in0.0 mm
05:02 PM 99.1°F37.3°C 30.4°F-0.9°C 9% 17.0 mph SW27.4 kmh SW 17.0 mph27.4 kmh -338605.1 mb - 0.00 in0.0 mm 0.00 in0.0 mm
05:07 PM 99.1°F37.3°C 30.4°F-0.9°C 9% 15.0 mph WSW24.1 kmh WSW 6.9 mph11.1 kmh -338605.1 mb - 0.00 in0.0 mm 0.00 in0.0 mm
05:12 PM 99.1°F37.3°C 33.1°F0.6°C 10% 13.0 mph SW20.9 kmh SW 13.0 mph20.9 kmh -338605.1 mb - 0.00 in0.0 mm 0.00 in0.0 mm
05:17 PM 99.0°F37.2°C 32.9°F0.5°C 10% 13.0 mph SW20.9 kmh SW 11.0 mph17.7 kmh -338605.1 mb - 0.00 in0.0 mm 0.00 in0.0 mm
05:22 PM 98.8°F37.1°C 35.2°F1.8°C 11% 16.1 mph SW25.9 kmh SW 17.9 mph28.8 kmh -338605.1 mb - 0.00 in0.0 mm 0.00 in0.0 mm
05:27 PM 98.4°F36.9°C 34.9°F1.6°C 11% 17.0 mph SW27.4 kmh SW 21.9 mph35.2 kmh -338605.1 mb - 0.00 in0.0 mm 0.00 in0.0 mm
05:32 PM 98.1°F36.7°C 34.5°F1.4°C 11% 16.1 mph SSW25.9 kmh SSW 12.1 mph19.5 kmh -338605.1 mb - 0.00 in0.0 mm 0.00 in0.0 mm
05:37 PM 97.9°F36.6°C 36.7°F2.6°C 12% 15.0 mph SSW24.1 kmh SSW 11.0 mph17.7 kmh -338605.1 mb - 0.00 in0.0 mm 0.00 in0.0 mm
05:42 PM 97.5°F36.4°C 36.3°F2.4°C 12% 14.1 mph SW22.7 kmh SW 13.0 mph20.9 kmh -338605.1 mb - 0.00 in0.0 mm 0.00 in0.0 mm
05:47 PM 97.3°F36.3°C 36.3°F2.4°C 12% 14.1 mph WSW22.7 kmh WSW 14.1 mph22.7 kmh -338605.1 mb - 0.00 in0.0 mm 0.00 in0.0 mm
05:52 PM 97.2°F36.2°C 36.1°F2.3°C 12% 15.0 mph WSW24.1 kmh WSW 19.0 mph30.6 kmh -338605.1 mb - 0.00 in0.0 mm 0.00 in0.0 mm
05:57 PM 96.6°F35.9°C 35.8°F2.1°C 12% 17.0 mph WSW27.4 kmh WSW 19.9 mph32.0 kmh -338605.1 mb - 0.00 in0.0 mm 0.00 in0.0 mm
06:02 PM 96.6°F35.9°C 35.8°F2.1°C 12% 16.1 mph WSW25.9 kmh WSW 16.1 mph25.9 kmh -338605.1 mb - 0.00 in0.0 mm 0.00 in0.0 mm
06:07 PM 96.4°F35.8°C 37.6°F3.1°C 13% 16.1 mph WSW25.9 kmh WSW 21.9 mph35.2 kmh -338605.1 mb - 0.00 in0.0 mm 0.00 in0.0 mm
06:12 PM 96.3°F35.7°C 37.4°F3.0°C 13% 17.9 mph WSW28.8 kmh WSW 16.1 mph25.9 kmh -338605.1 mb - 0.00 in0.0 mm 0.00 in0.0 mm
06:17 PM 96.1°F35.6°C 37.2°F2.9°C 13% 16.1 mph WSW25.9 kmh WSW 17.9 mph28.8 kmh -338605.1 mb - 0.00 in0.0 mm 0.00 in0.0 mm
06:22 PM 96.1°F35.6°C 37.2°F2.9°C 13% 16.1 mph WSW25.9 kmh WSW 16.1 mph25.9 kmh -338605.1 mb - 0.00 in0.0 mm 0.00 in0.0 mm
06:27 PM 95.7°F35.4°C 37.0°F2.8°C 13% 16.1 mph WSW25.9 kmh WSW 12.1 mph19.5 kmh -338605.1 mb - 0.00 in0.0 mm 0.00 in0.0 mm
06:32 PM 95.5°F35.3°C 38.8°F3.8°C 14% 14.1 mph WSW22.7 kmh WSW 13.0 mph20.9 kmh -338605.1 mb - 0.00 in0.0 mm 0.00 in0.0 mm
06:37 PM 95.5°F35.3°C 40.5°F4.7°C 15% 13.0 mph SSW20.9 kmh SSW 6.0 mph9.7 kmh -338605.1 mb - 0.00 in0.0 mm 0.00 in0.0 mm
06:42 PM 95.0°F35.0°C 40.1°F4.5°C 15% 13.0 mph WSW20.9 kmh WSW 11.0 mph17.7 kmh -338605.1 mb - 0.00 in0.0 mm 0.00 in0.0 mm
06:47 PM 94.6°F34.8°C 39.7°F4.3°C 15% 14.1 mph WSW22.7 kmh WSW 13.0 mph20.9 kmh -338605.1 mb - 0.00 in0.0 mm 0.00 in0.0 mm
06:52 PM 94.5°F34.7°C 41.4°F5.2°C 16% 15.0 mph WSW24.1 kmh WSW 14.1 mph22.7 kmh -338605.1 mb - 0.00 in0.0 mm 0.00 in0.0 mm
06:57 PM 94.1°F34.5°C 41.0°F5.0°C 16% 14.1 mph WSW22.7 kmh WSW 10.1 mph16.3 kmh -338605.1 mb - 0.00 in0.0 mm 0.00 in0.0 mm
07:02 PM 93.6°F34.2°C 42.3°F5.7°C 17% 13.0 mph WSW20.9 kmh WSW 10.1 mph16.3 kmh -338605.1 mb - 0.00 in0.0 mm 0.00 in0.0 mm
07:07 PM 93.0°F33.9°C 43.3°F6.3°C 18% 14.1 mph WSW22.7 kmh WSW 17.0 mph27.4 kmh -338605.1 mb - 0.00 in0.0 mm 0.00 in0.0 mm
07:12 PM 92.3°F33.5°C 42.6°F5.9°C 18% 15.0 mph WSW24.1 kmh WSW 21.0 mph33.8 kmh -338605.1 mb - 0.00 in0.0 mm 0.00 in0.0 mm
07:17 PM 91.8°F33.2°C 42.3°F5.7°C 18% 15.0 mph SW24.1 kmh SW 17.9 mph28.8 kmh -338605.1 mb - 0.00 in0.0 mm 0.00 in0.0 mm
07:22 PM 91.4°F33.0°C 43.3°F6.3°C 19% 13.0 mph WSW20.9 kmh WSW 13.0 mph20.9 kmh -338605.1 mb - 0.00 in0.0 mm 0.00 in0.0 mm
07:27 PM 90.9°F32.7°C 43.0°F6.1°C 19% 14.1 mph SW22.7 kmh SW 17.9 mph28.8 kmh -338605.1 mb - 0.00 in0.0 mm 0.00 in0.0 mm
07:32 PM 90.3°F32.4°C 42.4°F5.8°C 19% 15.0 mph WSW24.1 kmh WSW 16.1 mph25.9 kmh -338605.1 mb - 0.00 in0.0 mm 0.00 in0.0 mm
07:37 PM 90.1°F32.3°C 43.7°F6.5°C 20% 15.0 mph SW24.1 kmh SW 13.0 mph20.9 kmh -338605.1 mb - 0.00 in0.0 mm 0.00 in0.0 mm
07:42 PM 89.8°F32.1°C 43.3°F6.3°C 20% 13.0 mph SW20.9 kmh SW 13.0 mph20.9 kmh -338605.1 mb - 0.00 in0.0 mm 0.00 in0.0 mm
07:47 PM 89.4°F31.9°C 43.0°F6.1°C 20% 12.1 mph WSW19.5 kmh WSW 17.0 mph27.4 kmh -338605.1 mb - 0.00 in0.0 mm 0.00 in0.0 mm
07:52 PM 89.1°F31.7°C 44.1°F6.7°C 21% 12.1 mph SW19.5 kmh SW 14.1 mph22.7 kmh -338605.1 mb - 0.00 in0.0 mm 0.00 in0.0 mm
07:57 PM 88.9°F31.6°C 43.9°F6.6°C 21% 12.1 mph SW19.5 kmh SW 13.0 mph20.9 kmh -338605.1 mb - 0.00 in0.0 mm 0.00 in0.0 mm
08:02 PM 88.5°F31.4°C 43.5°F6.4°C 21% 11.0 mph SW17.7 kmh SW 14.1 mph22.7 kmh -338605.1 mb - 0.00 in0.0 mm 0.00 in0.0 mm
08:07 PM 88.2°F31.2°C 44.6°F7.0°C 22% 12.1 mph SW19.5 kmh SW 17.9 mph28.8 kmh -338605.1 mb - 0.00 in0.0 mm 0.00 in0.0 mm
08:12 PM 88.0°F31.1°C 44.4°F6.9°C 22% 12.1 mph SSW19.5 kmh SSW 4.9 mph7.9 kmh -338605.1 mb - 0.00 in0.0 mm 0.00 in0.0 mm
08:17 PM 87.6°F30.9°C 44.1°F6.7°C 22% 10.1 mph SW16.3 kmh SW 11.0 mph17.7 kmh -338605.1 mb - 0.00 in0.0 mm 0.00 in0.0 mm
08:22 PM 87.3°F30.7°C 43.7°F6.5°C 22% 10.1 mph WSW16.3 kmh WSW 11.0 mph17.7 kmh -338605.1 mb - 0.00 in0.0 mm 0.00 in0.0 mm
08:27 PM 87.1°F30.6°C 43.7°F6.5°C 22% 10.1 mph SW16.3 kmh SW 10.1 mph16.3 kmh -338605.1 mb - 0.00 in0.0 mm 0.00 in0.0 mm
08:32 PM 86.7°F30.4°C 44.4°F6.9°C 23% 11.0 mph SW17.7 kmh SW 13.0 mph20.9 kmh -338605.1 mb - 0.00 in0.0 mm 0.00 in0.0 mm
08:37 PM 86.5°F30.3°C 44.4°F6.9°C 23% 10.1 mph SSW16.3 kmh SSW 10.1 mph16.3 kmh -338605.1 mb - 0.00 in0.0 mm 0.00 in0.0 mm
08:42 PM 86.4°F30.2°C 44.2°F6.8°C 23% 8.9 mph SW14.3 kmh SW 10.1 mph16.3 kmh -338605.1 mb - 0.00 in0.0 mm 0.00 in0.0 mm
08:47 PM 86.2°F30.1°C 44.1°F6.7°C 23% 11.0 mph SW17.7 kmh SW 10.1 mph16.3 kmh -338605.1 mb - 0.00 in0.0 mm 0.00 in0.0 mm
08:52 PM 85.8°F29.9°C 43.7°F6.5°C 23% 12.1 mph SSW19.5 kmh SSW 6.9 mph11.1 kmh -338605.1 mb - 0.00 in0.0 mm 0.00 in0.0 mm
08:57 PM 85.6°F29.8°C 43.5°F6.4°C 23% 11.0 mph SW17.7 kmh SW 6.9 mph11.1 kmh -338605.1 mb - 0.00 in0.0 mm 0.00 in0.0 mm
09:02 PM 85.6°F29.8°C 43.5°F6.4°C 23% 12.1 mph SSW19.5 kmh SSW 8.9 mph14.3 kmh -338605.1 mb - 0.00 in0.0 mm 0.00 in0.0 mm
09:07 PM 85.5°F29.7°C 43.5°F6.4°C 23% 12.1 mph SW19.5 kmh SW 19.9 mph32.0 kmh -338605.1 mb - 0.00 in0.0 mm 0.00 in0.0 mm
09:12 PM 85.3°F29.6°C 43.3°F6.3°C 23% 12.1 mph SW19.5 kmh SW 8.1 mph13.0 kmh -338605.1 mb - 0.00 in0.0 mm 0.00 in0.0 mm
09:17 PM 85.3°F29.6°C 43.3°F6.3°C 23% 12.1 mph SW19.5 kmh SW 12.1 mph19.5 kmh -338605.1 mb - 0.00 in0.0 mm 0.00 in0.0 mm
09:22 PM 85.3°F29.6°C 43.3°F6.3°C 23% 12.1 mph SSW19.5 kmh SSW 11.0 mph17.7 kmh -338605.1 mb - 0.00 in0.0 mm 0.00 in0.0 mm
09:27 PM 85.1°F29.5°C 43.2°F6.2°C 23% 12.1 mph SW19.5 kmh SW 8.1 mph13.0 kmh -338605.1 mb - 0.00 in0.0 mm 0.00 in0.0 mm
09:32 PM 84.9°F29.4°C 44.1°F6.7°C 24% 12.1 mph SSW19.5 kmh SSW 11.0 mph17.7 kmh -338605.1 mb - 0.00 in0.0 mm 0.00 in0.0 mm
09:37 PM 84.9°F29.4°C 44.1°F6.7°C 24% 11.0 mph WSW17.7 kmh WSW 12.1 mph19.5 kmh -338605.1 mb - 0.00 in0.0 mm 0.00 in0.0 mm
09:42 PM 84.7°F29.3°C 43.9°F6.6°C 24% 10.1 mph SW16.3 kmh SW 6.9 mph11.1 kmh -338605.1 mb - 0.00 in0.0 mm 0.00 in0.0 mm
09:47 PM 84.6°F29.2°C 43.9°F6.6°C 24% 10.1 mph SSW16.3 kmh SSW 10.1 mph16.3 kmh -338605.1 mb - 0.00 in0.0 mm 0.00 in0.0 mm
09:52 PM 84.6°F29.2°C 43.9°F6.6°C 24% 11.0 mph SW17.7 kmh SW 11.0 mph17.7 kmh -338605.1 mb - 0.00 in0.0 mm 0.00 in0.0 mm
09:57 PM 84.4°F29.1°C 43.7°F6.5°C 24% 11.0 mph SW17.7 kmh SW 14.1 mph22.7 kmh -338605.1 mb - 0.00 in0.0 mm 0.00 in0.0 mm
10:02 PM 84.2°F29.0°C 43.5°F6.4°C 24% 10.1 mph SW16.3 kmh SW 8.9 mph14.3 kmh -338605.1 mb - 0.00 in0.0 mm 0.00 in0.0 mm
10:07 PM 84.0°F28.9°C 43.3°F6.3°C 24% 10.1 mph WSW16.3 kmh WSW 6.0 mph9.7 kmh -338605.1 mb - 0.00 in0.0 mm 0.00 in0.0 mm
10:12 PM 83.8°F28.8°C 43.2°F6.2°C 24% 8.1 mph SW13.0 kmh SW 10.1 mph16.3 kmh -338605.1 mb - 0.00 in0.0 mm 0.00 in0.0 mm
10:17 PM 83.7°F28.7°C 43.0°F6.1°C 24% 8.9 mph WSW14.3 kmh WSW 8.9 mph14.3 kmh -338605.1 mb - 0.00 in0.0 mm 0.00 in0.0 mm
10:22 PM 83.7°F28.7°C 43.0°F6.1°C 24% 10.1 mph WSW16.3 kmh WSW 8.9 mph14.3 kmh -338605.1 mb - 0.00 in0.0 mm 0.00 in0.0 mm
10:27 PM 83.5°F28.6°C 43.9°F6.6°C 25% 8.9 mph SW14.3 kmh SW 11.0 mph17.7 kmh -338605.1 mb - 0.00 in0.0 mm 0.00 in0.0 mm
10:32 PM 83.5°F28.6°C 43.9°F6.6°C 25% 8.9 mph SW14.3 kmh SW 10.1 mph16.3 kmh -338605.1 mb - 0.00 in0.0 mm 0.00 in0.0 mm
10:37 PM 83.1°F28.4°C 43.7°F6.5°C 25% 8.9 mph SW14.3 kmh SW 8.9 mph14.3 kmh -338605.1 mb - 0.00 in0.0 mm 0.00 in0.0 mm
10:42 PM 83.1°F28.4°C 43.7°F6.5°C 25% 10.1 mph SW16.3 kmh SW 11.0 mph17.7 kmh -338605.1 mb - 0.00 in0.0 mm 0.00 in0.0 mm
10:47 PM 83.1°F28.4°C 43.7°F6.5°C 25% 10.1 mph SW16.3 kmh SW 10.1 mph16.3 kmh -338605.1 mb - 0.00 in0.0 mm 0.00 in0.0 mm
10:52 PM 83.1°F28.4°C 43.7°F6.5°C 25% 10.1 mph SSW16.3 kmh SSW 11.0 mph17.7 kmh -338605.1 mb - 0.00 in0.0 mm 0.00 in0.0 mm
10:57 PM 82.9°F28.3°C 43.5°F6.4°C 25% 8.1 mph SSW13.0 kmh SSW 6.9 mph11.1 kmh -338605.1 mb - 0.00 in0.0 mm 0.00 in0.0 mm
11:02 PM 82.9°F28.3°C 44.6°F7.0°C 26% 8.1 mph SW13.0 kmh SW 8.1 mph13.0 kmh -338605.1 mb - 0.00 in0.0 mm 0.00 in0.0 mm
11:07 PM 82.8°F28.2°C 44.4°F6.9°C 26% 8.1 mph SW13.0 kmh SW 8.9 mph14.3 kmh -338605.1 mb - 0.00 in0.0 mm 0.00 in0.0 mm
11:12 PM 82.8°F28.2°C 44.4°F6.9°C 26% 8.1 mph SSW13.0 kmh SSW 6.0 mph9.7 kmh -338605.1 mb - 0.00 in0.0 mm 0.00 in0.0 mm
11:17 PM 82.6°F28.1°C 44.2°F6.8°C 26% 6.9 mph SSW11.1 kmh SSW 11.0 mph17.7 kmh -338605.1 mb - 0.00 in0.0 mm 0.00 in0.0 mm
11:22 PM 82.6°F28.1°C 44.2°F6.8°C 26% 8.1 mph SSW13.0 kmh SSW 6.0 mph9.7 kmh -338605.1 mb - 0.00 in0.0 mm 0.00 in0.0 mm
11:27 PM 82.6°F28.1°C 45.1°F7.3°C 27% 8.1 mph SSW13.0 kmh SSW 6.9 mph11.1 kmh -338605.1 mb - 0.00 in0.0 mm 0.00 in0.0 mm
11:32 PM 82.6°F28.1°C 44.2°F6.8°C 26% 8.1 mph SSW13.0 kmh SSW 10.1 mph16.3 kmh -338605.1 mb - 0.00 in0.0 mm 0.00 in0.0 mm
11:37 PM 82.8°F28.2°C 45.3°F7.4°C 27% 8.9 mph S14.3 kmh S 16.1 mph25.9 kmh -338605.1 mb - 0.00 in0.0 mm 0.00 in0.0 mm
11:42 PM 82.9°F28.3°C 45.5°F7.5°C 27% 11.0 mph S17.7 kmh S 16.1 mph25.9 kmh -338605.1 mb - 0.00 in0.0 mm 0.00 in0.0 mm
11:47 PM 82.9°F28.3°C 45.5°F7.5°C 27% 12.1 mph SSW19.5 kmh SSW 11.0 mph17.7 kmh -338605.1 mb - 0.00 in0.0 mm 0.00 in0.0 mm
11:52 PM 82.9°F28.3°C 45.5°F7.5°C 27% 11.0 mph SSW17.7 kmh SSW 6.9 mph11.1 kmh -338605.1 mb - 0.00 in0.0 mm 0.00 in0.0 mm
11:57 PM 82.8°F28.2°C 45.3°F7.4°C 27% 8.9 mph SW14.3 kmh SW 6.9 mph11.1 kmh -338605.1 mb - 0.00 in0.0 mm 0.00 in0.0 mm